Главная страница
METAR-TAF:

METAR-TAF

Аэропорты :

Waterbury-Oxford Airport

Оксфорд, Коннектикут, США

широта: 41-29N, долгота: 073-08W, высота над уровнем моря: 222 м

Текущие метеонаблюдения

Эта сводка был подготовлена 35 минут назад, в 10:51 UTC
Штиль
Температура 11°C
Влажность 87%
Давление 1015 hPa
Видимость: 16.1 км
ясное небо

METAR: KOXC 241051Z 00000KT 10SM CLR 11/09 A2998 RMK AO2 SLP162 T01060094 PNO $

Время: 07:26 (11:26 UTC)


TAF: отсутствует

Метеонаблюдения и прогнозы для более 4000 аэропортов (сводки METAR и TAF).

Имеющиеся станции представлены на карте желтыми и красными точками.

Чтобы увидеть название станции, наведите на нее мышь.

Затем щелкните, чтобы увидеть метеонаблюдения и метеопрогнозы.

Управление картой: чтобы увеличить масштаб, щелкните зеленые кнопки с черным крестиком; чтобы уменьшить масштаб, щелкните зеленую кнопку с тире; для просмотра соседних карт щелкайте зеленые стрелки.


METAR-TAF: